Time;durP1;ratioP1;P1;durP2;ratioP2;P2;SDS_P1;SDS_P2;PMS_P1;PMS_P2;Temp;Humidity;BMP_temperature;BMP_pressure;BME280_temperature;BME280_humidity;BME280_pressure;Samples;Min_cycle;Max_cycle;Signal;HPM_P1;HPM_P2
2022/06/30 00:02:22;;;;;;;15.07;10.65;;;22.30;99.90;;;;;;5012619;28;20972;-67
2022/06/30 00:04:49;;;;;;;12.07;10.48;;;22.40;99.90;;;;;;5014143;28;20202;-67
2022/06/30 00:07:15;;;;;;;11.63;10.13;;;22.40;99.90;;;;;;5016255;28;20214;-67
2022/06/30 00:09:42;;;;;;;14.32;11.43;;;22.40;99.90;;;;;;5008930;28;20207;-67
2022/06/30 00:12:09;;;;;;;13.02;10.68;;;22.40;99.90;;;;;;5012075;28;20215;-67
2022/06/30 00:14:36;;;;;;;14.00;11.00;;;22.40;99.90;;;;;;5012740;28;20206;-67
2022/06/30 00:17:05;;;;;;;13.18;11.85;;;22.30;99.90;;;;;;5026102;28;20241;-67
2022/06/30 00:19:32;;;;;;;14.18;12.68;;;22.30;99.90;;;;;;5022190;28;20217;-66
2022/06/30 00:21:59;;;;;;;11.10;9.88;;;22.30;99.90;;;;;;5015599;28;20203;-68
2022/06/30 00:24:26;;;;;;;12.90;10.70;;;22.30;99.90;;;;;;5017111;28;20213;-68
2022/06/30 00:26:53;;;;;;;10.88;9.70;;;22.30;99.90;;;;;;5013697;28;20207;-67
2022/06/30 00:29:19;;;;;;;11.57;9.43;;;22.40;99.90;;;;;;5027043;28;20234;-68
2022/06/30 00:31:46;;;;;;;19.27;15.02;;;22.30;99.90;;;;;;5014506;28;20684;-67
2022/06/30 00:34:14;;;;;;;10.93;9.77;;;22.30;99.90;;;;;;5013214;28;20207;-68
2022/06/30 00:36:43;;;;;;;13.73;11.38;;;22.30;99.90;;;;;;5021293;28;20227;-68
2022/06/30 00:39:10;;;;;;;11.90;10.73;;;22.20;99.90;;;;;;5021236;28;20215;-66
2022/06/30 00:41:39;;;;;;;16.00;13.90;;;22.20;99.90;;;;;;5018068;28;20313;-68
2022/06/30 00:44:07;;;;;;;11.20;10.15;;;22.20;99.90;;;;;;5020590;28;20279;-67
2022/06/30 00:46:34;;;;;;;11.95;9.77;;;22.10;99.90;;;;;;5019877;28;20614;-68
2022/06/30 00:49:01;;;;;;;18.30;13.43;;;22.10;99.90;;;;;;5021810;28;20207;-68
2022/06/30 00:51:29;;;;;;;12.07;10.82;;;22.10;99.90;;;;;;5016063;28;20235;-67
2022/06/30 00:53:56;;;;;;;13.23;11.18;;;21.90;99.90;;;;;;5019036;28;20211;-67
2022/06/30 00:56:26;;;;;;;11.65;10.55;;;21.90;99.90;;;;;;5020453;28;20223;-67
2022/06/30 00:58:56;;;;;;;12.55;11.35;;;21.90;99.90;;;;;;5029193;28;20209;-68
2022/06/30 01:01:24;;;;;;;12.48;11.10;;;21.90;99.90;;;;;;5023368;28;20216;-67
2022/06/30 01:03:52;;;;;;;11.80;10.73;;;21.90;99.90;;;;;;5013064;28;21341;-67
2022/06/30 01:06:21;;;;;;;12.88;11.60;;;21.80;99.90;;;;;;5013081;28;20234;-67
2022/06/30 01:08:49;;;;;;;12.93;11.73;;;21.90;99.90;;;;;;5014446;28;20207;-67
2022/06/30 01:14:01;;;;;;;13.95;12.52;;;21.80;99.90;;;;;;5023020;28;20699;-67
2022/06/30 01:16:28;;;;;;;13.20;12.00;;;21.80;99.90;;;;;;5022473;28;20662;-67
2022/06/30 01:18:55;;;;;;;17.75;15.57;;;21.70;99.90;;;;;;5012809;28;20246;-67
2022/06/30 01:21:21;;;;;;;16.58;13.10;;;21.80;99.90;;;;;;5013477;28;20448;-67
2022/06/30 01:23:49;;;;;;;17.80;10.95;;;21.80;99.90;;;;;;5027409;28;20207;-68
2022/06/30 01:26:16;;;;;;;11.95;10.73;;;21.80;99.90;;;;;;5014573;28;20222;-69
2022/06/30 01:28:43;;;;;;;13.23;11.82;;;21.80;99.90;;;;;;5015579;28;20255;-67
2022/06/30 01:31:10;;;;;;;14.45;13.05;;;21.70;99.90;;;;;;5022176;28;20226;-67
2022/06/30 01:33:37;;;;;;;19.38;14.65;;;21.80;99.90;;;;;;5021341;28;20211;-67
2022/06/30 01:36:04;;;;;;;11.57;10.43;;;21.70;99.90;;;;;;5026406;28;20231;-68
2022/06/30 01:38:30;;;;;;;12.18;10.98;;;21.70;99.90;;;;;;5016157;28;20207;-68
2022/06/30 01:40:58;;;;;;;11.23;10.15;;;21.70;99.90;;;;;;5016916;28;20206;-68
2022/06/30 01:43:25;;;;;;;13.60;12.20;;;21.70;99.90;;;;;;5024571;28;20450;-67
2022/06/30 01:45:52;;;;;;;13.45;11.43;;;21.80;99.90;;;;;;5017405;28;20584;-68
2022/06/30 01:48:19;;;;;;;13.57;11.68;;;21.80;99.90;;;;;;5022556;28;20233;-67
2022/06/30 01:50:46;;;;;;;11.57;10.38;;;21.70;99.90;;;;;;5013815;28;20211;-67
2022/06/30 01:53:12;;;;;;;14.40;12.07;;;21.60;99.90;;;;;;5016072;28;20206;-66
2022/06/30 01:55:39;;;;;;;11.18;10.07;;;21.70;99.90;;;;;;5020256;28;20218;-67
2022/06/30 01:58:07;;;;;;;12.55;10.65;;;21.70;99.90;;;;;;5024698;28;20214;-67
2022/06/30 02:00:34;;;;;;;10.95;9.95;;;21.60;99.90;;;;;;5018189;28;20545;-67
2022/06/30 02:03:01;;;;;;;11.43;10.43;;;21.60;99.90;;;;;;5019643;28;20217;-67
2022/06/30 02:05:28;;;;;;;12.63;11.40;;;21.60;99.90;;;;;;5012447;28;20219;-67
2022/06/30 02:07:55;;;;;;;13.18;11.75;;;21.60;99.90;;;;;;5020718;28;20215;-67
2022/06/30 02:10:24;;;;;;;12.07;9.65;;;21.60;99.90;;;;;;5023118;28;20577;-67
2022/06/30 02:12:51;;;;;;;12.98;10.43;;;21.50;99.90;;;;;;5013704;28;20203;-67
2022/06/30 02:15:21;;;;;;;11.43;10.40;;;21.60;99.90;;;;;;5013839;28;20245;-67
2022/06/30 02:17:50;;;;;;;12.25;10.95;;;21.50;99.90;;;;;;5020235;28;20325;-67
2022/06/30 02:20:21;;;;;;;11.52;10.50;;;21.50;99.90;;;;;;5013802;28;20222;-68
2022/06/30 02:22:49;;;;;;;14.50;10.77;;;21.50;99.90;;;;;;5022039;28;20261;-68
2022/06/30 02:25:16;;;;;;;13.35;11.07;;;21.50;99.90;;;;;;5012957;28;20231;-68
2022/06/30 02:27:43;;;;;;;12.80;11.57;;;21.50;99.90;;;;;;5022636;28;20668;-67
2022/06/30 02:30:11;;;;;;;11.75;10.65;;;21.50;99.90;;;;;;5019155;28;20237;-67
2022/06/30 02:32:39;;;;;;;10.95;9.95;;;21.50;99.90;;;;;;5027987;28;20290;-67
2022/06/30 02:35:07;;;;;;;11.88;10.68;;;21.60;99.90;;;;;;5021441;28;20762;-68
2022/06/30 02:37:34;;;;;;;12.02;10.82;;;21.50;99.90;;;;;;5024086;28;20234;-67
2022/06/30 02:40:00;;;;;;;10.57;9.48;;;21.60;99.90;;;;;;5010616;28;20210;-67
2022/06/30 02:42:27;;;;;;;13.43;12.10;;;21.60;99.90;;;;;;5019827;28;20211;-67
2022/06/30 02:44:54;;;;;;;12.45;10.48;;;21.50;99.90;;;;;;5024140;28;20675;-67
2022/06/30 02:47:21;;;;;;;15.00;11.75;;;21.50;99.90;;;;;;5018363;28;20203;-67
2022/06/30 02:49:49;;;;;;;12.05;10.52;;;21.50;99.90;;;;;;5018148;28;20233;-68
2022/06/30 02:52:16;;;;;;;11.55;10.45;;;21.50;99.90;;;;;;5014472;28;20218;-68
2022/06/30 02:54:42;;;;;;;11.95;10.38;;;21.60;99.90;;;;;;5018524;28;20249;-67
2022/06/30 02:57:09;;;;;;;12.48;11.27;;;21.50;99.90;;;;;;5019932;28;20230;-67
2022/06/30 02:59:36;;;;;;;13.63;12.25;;;21.60;99.90;;;;;;5027401;28;20214;-67
2022/06/30 03:02:03;;;;;;;14.30;12.55;;;21.60;99.90;;;;;;5013924;28;20563;-67
2022/06/30 03:04:30;;;;;;;11.13;10.02;;;21.50;99.90;;;;;;5019919;28;20299;-68
2022/06/30 03:07:00;;;;;;;11.30;10.07;;;21.60;99.90;;;;;;5012023;28;20455;-69
2022/06/30 03:09:27;;;;;;;12.23;10.57;;;21.60;99.90;;;;;;5021073;28;20210;-68
2022/06/30 03:11:53;;;;;;;11.65;10.48;;;21.60;99.90;;;;;;5023863;28;20214;-67
2022/06/30 03:14:20;;;;;;;13.48;12.07;;;21.50;99.90;;;;;;5015660;28;20611;-67
2022/06/30 03:16:47;;;;;;;13.85;12.45;;;21.50;99.90;;;;;;5019788;28;20258;-67
2022/06/30 03:19:14;;;;;;;11.98;10.40;;;21.40;99.90;;;;;;5015412;28;20242;-67
2022/06/30 03:21:41;;;;;;;13.25;11.95;;;21.40;99.90;;;;;;5018254;28;20238;-67
2022/06/30 03:24:09;;;;;;;13.65;11.32;;;21.40;99.90;;;;;;5026186;28;20222;-67
2022/06/30 03:26:37;;;;;;;14.25;12.65;;;21.40;99.90;;;;;;5021566;28;20226;-67
2022/06/30 03:29:03;;;;;;;12.82;11.50;;;21.40;99.90;;;;;;5018184;28;20288;-67
2022/06/30 03:31:30;;;;;;;14.10;11.65;;;21.40;99.90;;;;;;5014200;28;20207;-68
2022/06/30 03:33:57;;;;;;;13.68;12.15;;;21.40;99.90;;;;;;5010622;28;20265;-67
2022/06/30 03:36:24;;;;;;;13.70;10.77;;;21.40;99.90;;;;;;5009517;28;20227;-68
2022/06/30 03:38:51;;;;;;;11.50;10.38;;;21.40;99.90;;;;;;5018068;28;20207;-68
2022/06/30 03:41:19;;;;;;;12.10;10.82;;;21.50;99.90;;;;;;5011196;28;20218;-68
2022/06/30 03:43:46;;;;;;;13.15;11.73;;;21.50;99.90;;;;;;5022314;28;20688;-68
2022/06/30 03:46:13;;;;;;;13.95;10.95;;;21.40;99.90;;;;;;5015158;28;20211;-67
2022/06/30 03:48:41;;;;;;;16.10;12.63;;;21.40;99.90;;;;;;5026412;28;20202;-68
2022/06/30 03:51:08;;;;;;;12.52;11.05;;;21.50;99.90;;;;;;5014256;28;20285;-67
2022/06/30 03:53:35;;;;;;;16.30;14.15;;;21.50;99.90;;;;;;5028738;28;20209;-67
2022/06/30 03:56:02;;;;;;;18.38;14.77;;;21.50;99.90;;;;;;5024497;28;20219;-67
2022/06/30 03:58:30;;;;;;;12.93;11.32;;;21.50;99.90;;;;;;5024764;28;20213;-67
2022/06/30 04:00:57;;;;;;;15.23;12.32;;;21.50;99.90;;;;;;5017790;28;20206;-68
2022/06/30 04:03:24;;;;;;;13.80;12.07;;;21.50;99.90;;;;;;5013866;28;20217;-69
2022/06/30 04:05:50;;;;;;;11.95;10.65;;;21.50;99.90;;;;;;5016416;28;20206;-67
2022/06/30 04:08:17;;;;;;;14.75;13.18;;;21.50;99.90;;;;;;5013459;28;20206;-67
2022/06/30 04:10:44;;;;;;;12.35;11.10;;;21.50;99.90;;;;;;5015708;28;20218;-67
2022/06/30 04:13:11;;;;;;;12.27;10.93;;;21.50;99.90;;;;;;5019473;28;20206;-67
2022/06/30 04:15:39;;;;;;;12.68;11.10;;;21.60;99.90;;;;;;5013729;28;20210;-67
2022/06/30 04:18:06;;;;;;;12.93;11.45;;;21.60;99.90;;;;;;5018086;28;20242;-67
2022/06/30 04:20:32;;;;;;;13.15;11.07;;;21.70;99.90;;;;;;5016553;28;20206;-67
2022/06/30 04:22:59;;;;;;;14.75;13.25;;;21.70;99.90;;;;;;5018781;28;20207;-67
2022/06/30 04:25:26;;;;;;;12.20;10.93;;;21.80;99.90;;;;;;5011881;28;20651;-68
2022/06/30 04:27:54;;;;;;;14.15;12.55;;;21.80;99.90;;;;;;5015517;28;20211;-68
2022/06/30 04:33:03;;;;;;;11.18;9.95;;;22.00;99.90;;;;;;5014568;28;20303;-68
2022/06/30 04:35:30;;;;;;;12.20;10.90;;;22.20;99.90;;;;;;5009226;28;20203;-67
2022/06/30 04:37:58;;;;;;;11.45;10.35;;;22.30;99.90;;;;;;5010581;28;20220;-67
2022/06/30 04:43:09;;;;;;;11.77;10.68;;;22.50;99.90;;;;;;5020918;28;20210;-67
2022/06/30 04:45:36;;;;;;;12.13;10.38;;;22.70;99.90;;;;;;5011713;28;20214;-67
2022/06/30 04:48:05;;;;;;;12.38;11.02;;;22.70;99.90;;;;;;5025609;28;20663;-68
2022/06/30 04:50:32;;;;;;;17.60;13.07;;;22.90;99.90;;;;;;5011248;28;20199;-67
2022/06/30 04:52:59;;;;;;;13.63;11.43;;;22.90;99.90;;;;;;5019437;28;20214;-67
2022/06/30 04:55:26;;;;;;;13.88;11.65;;;23.10;99.90;;;;;;5008889;28;20214;-67
2022/06/30 04:57:52;;;;;;;12.50;11.38;;;23.20;99.90;;;;;;5020505;28;20543;-67
2022/06/30 05:00:19;;;;;;;11.60;10.32;;;23.30;99.90;;;;;;5016381;28;20207;-67
2022/06/30 05:02:46;;;;;;;15.18;10.68;;;23.30;99.90;;;;;;5019762;28;20214;-67
2022/06/30 05:05:14;;;;;;;12.38;11.18;;;23.30;99.90;;;;;;5025175;28;20214;-67
2022/06/30 05:07:41;;;;;;;14.30;10.65;;;23.30;99.90;;;;;;5015738;28;20203;-68
2022/06/30 05:10:08;;;;;;;13.15;10.38;;;23.40;99.90;;;;;;5022807;28;20207;-67
2022/06/30 05:12:35;;;;;;;12.65;10.48;;;23.40;99.90;;;;;;5024631;28;20219;-73
2022/06/30 05:15:01;;;;;;;13.52;10.48;;;23.50;99.90;;;;;;5018605;28;20699;-68
2022/06/30 05:17:28;;;;;;;16.13;12.02;;;23.40;99.90;;;;;;5014578;28;20250;-74
2022/06/30 05:19:55;;;;;;;12.32;11.18;;;23.50;99.90;;;;;;5026032;28;20214;-75
2022/06/30 05:22:25;;;;;;;11.70;10.30;;;23.50;99.90;;;;;;5016561;28;20207;-74
2022/06/30 05:27:37;;;;;;;12.60;10.43;;;23.60;99.90;;;;;;5021572;28;20197;-74
2022/06/30 05:30:04;;;;;;;12.38;10.48;;;23.70;99.90;;;;;;5017896;28;20719;-73
2022/06/30 05:32:31;;;;;;;12.00;10.55;;;23.70;99.90;;;;;;5017776;28;20631;-74
2022/06/30 05:34:58;;;;;;;11.63;10.40;;;23.70;99.90;;;;;;5029461;28;20202;-73
2022/06/30 05:37:26;;;;;;;16.45;10.65;;;23.70;99.90;;;;;;5021465;28;20235;-73
2022/06/30 05:39:53;;;;;;;11.95;10.15;;;23.80;99.90;;;;;;5022102;28;20217;-74
2022/06/30 05:42:19;;;;;;;11.93;9.90;;;23.90;99.90;;;;;;5022389;28;20214;-74
2022/06/30 05:44:46;;;;;;;13.05;10.10;;;24.00;99.90;;;;;;5021659;28;20676;-74
2022/06/30 05:47:13;;;;;;;13.98;10.63;;;24.10;99.90;;;;;;5019404;28;20654;-74
2022/06/30 05:49:40;;;;;;;10.95;9.85;;;24.30;99.90;;;;;;5020081;28;20550;-74
2022/06/30 05:52:07;;;;;;;14.48;10.65;;;24.40;99.90;;;;;;5024353;28;20215;-74
2022/06/30 05:54:35;;;;;;;12.18;10.43;;;24.60;99.90;;;;;;5014640;28;20203;-69
2022/06/30 05:57:02;;;;;;;11.43;10.43;;;24.70;99.90;;;;;;5015298;28;20231;-69
2022/06/30 05:59:30;;;;;;;11.77;9.98;;;24.80;99.90;;;;;;5013170;28;20222;-69
2022/06/30 06:01:57;;;;;;;10.73;9.63;;;24.90;99.90;;;;;;5023928;28;20238;-69
2022/06/30 06:04:24;;;;;;;10.35;9.35;;;25.00;99.90;;;;;;5012414;28;20206;-69
2022/06/30 06:06:51;;;;;;;11.60;10.40;;;25.00;99.90;;;;;;5016318;28;20219;-68
2022/06/30 06:09:17;;;;;;;14.05;10.32;;;25.10;99.90;;;;;;5011210;28;20207;-66
2022/06/30 06:11:46;;;;;;;11.90;10.60;;;25.20;99.90;;;;;;5012097;28;20218;-68
2022/06/30 06:14:13;;;;;;;10.45;9.30;;;25.30;99.90;;;;;;5011743;28;20302;-68
2022/06/30 06:16:40;;;;;;;13.98;10.38;;;25.40;99.90;;;;;;5013830;28;20217;-67
2022/06/30 06:19:06;;;;;;;11.27;9.38;;;25.50;99.90;;;;;;5015204;28;20696;-68
2022/06/30 06:21:36;;;;;;;10.65;9.60;;;25.60;99.90;;;;;;5021377;28;20211;-67
2022/06/30 06:24:03;;;;;;;13.43;9.48;;;25.60;99.90;;;;;;5013214;28;20304;-66
2022/06/30 06:26:30;;;;;;;15.55;10.43;;;25.70;99.90;;;;;;5013047;28;20757;-66
2022/06/30 06:29:07;;;;;;;13.15;9.80;;;25.80;99.90;;;;;;5016356;28;20227;-68
2022/06/30 06:31:36;;;;;;;14.30;10.35;;;25.70;99.90;;;;;;5019950;28;20199;-66
2022/06/30 06:34:03;;;;;;;11.60;9.63;;;25.70;99.90;;;;;;5018078;28;20650;-66
2022/06/30 06:36:30;;;;;;;10.85;9.90;;;25.70;99.90;;;;;;5013781;28;20207;-68
2022/06/30 06:38:58;;;;;;;12.43;8.98;;;25.70;99.90;;;;;;5014889;28;20223;-67
2022/06/30 06:41:25;;;;;;;11.30;9.68;;;25.70;99.90;;;;;;5019908;28;20583;-67
2022/06/30 06:43:52;;;;;;;11.82;9.35;;;25.70;99.90;;;;;;5018158;28;20226;-68
2022/06/30 06:46:22;;;;;;;11.50;9.45;;;25.70;99.90;;;;;;5020172;28;20203;-71
2022/06/30 06:48:49;;;;;;;13.75;9.55;;;25.70;99.90;;;;;;5027684;28;20207;-70
2022/06/30 06:51:16;;;;;;;13.77;9.98;;;25.70;99.90;;;;;;5018867;28;20222;-69
2022/06/30 06:53:43;;;;;;;11.93;10.65;;;25.70;99.90;;;;;;5026697;28;20233;-68
2022/06/30 06:56:10;;;;;;;11.02;9.38;;;25.60;99.90;;;;;;5021034;28;20219;-68
2022/06/30 06:58:37;;;;;;;11.55;9.82;;;25.70;99.90;;;;;;5019102;28;20242;-67
2022/06/30 07:01:04;;;;;;;12.88;10.25;;;25.80;99.90;;;;;;5022910;28;20217;-69
2022/06/30 07:03:32;;;;;;;18.90;9.63;;;25.80;99.90;;;;;;5027795;28;20230;-67
2022/06/30 07:05:59;;;;;;;12.75;10.00;;;25.80;99.90;;;;;;5018938;28;20254;-69
2022/06/30 07:08:26;;;;;;;11.00;9.90;;;25.90;99.90;;;;;;5018397;28;20215;-67
2022/06/30 07:10:55;;;;;;;13.93;9.57;;;25.90;99.90;;;;;;5021604;28;20202;-68
2022/06/30 07:13:22;;;;;;;14.38;10.30;;;26.00;99.90;;;;;;5020320;28;20214;-68
2022/06/30 07:15:49;;;;;;;12.25;10.30;;;26.10;99.90;;;;;;5015320;28;20222;-69
2022/06/30 07:18:16;;;;;;;13.50;9.45;;;26.20;99.90;;;;;;5010987;28;20250;-65
2022/06/30 07:20:44;;;;;;;16.35;10.05;;;26.20;99.90;;;;;;5010683;28;20315;-74
2022/06/30 07:23:11;;;;;;;10.43;9.32;;;26.40;99.90;;;;;;5021637;28;20718;-69
2022/06/30 07:25:38;;;;;;;11.13;10.00;;;26.50;99.90;;;;;;5019115;28;20206;-66
2022/06/30 07:28:05;;;;;;;15.93;10.60;;;26.60;99.90;;;;;;5019568;28;20298;-69
2022/06/30 07:30:32;;;;;;;11.55;10.23;;;26.70;99.90;;;;;;5011028;28;20245;-70
2022/06/30 07:32:59;;;;;;;12.50;9.95;;;26.90;99.90;;;;;;5011280;28;20211;-69
2022/06/30 07:35:25;;;;;;;15.32;9.98;;;27.00;99.90;;;;;;5013254;28;20212;-68
2022/06/30 07:37:54;;;;;;;10.55;9.52;;;27.10;99.90;;;;;;5016188;28;20226;-69
2022/06/30 07:40:21;;;;;;;11.18;8.95;;;27.20;99.90;;;;;;5014356;28;20207;-69
2022/06/30 07:42:52;;;;;;;13.63;10.02;;;27.30;99.90;;;;;;5018706;28;20225;-73
2022/06/30 07:45:21;;;;;;;13.45;9.85;;;27.40;99.90;;;;;;5015969;28;20287;-69
2022/06/30 07:47:48;;;;;;;10.95;9.82;;;27.40;99.90;;;;;;5013260;28;20648;-68
2022/06/30 07:50:16;;;;;;;11.70;9.93;;;27.40;99.90;;;;;;5017466;28;20272;-68
2022/06/30 07:52:44;;;;;;;12.55;10.63;;;27.50;99.90;;;;;;5014559;28;20296;-69
2022/06/30 07:55:12;;;;;;;12.95;10.60;;;27.60;99.90;;;;;;5010741;28;20207;-68
2022/06/30 07:57:42;;;;;;;10.13;8.75;;;27.80;99.90;;;;;;5010849;28;20230;-67
2022/06/30 08:00:11;;;;;;;12.45;10.45;;;27.90;99.90;;;;;;5015063;28;20234;-66
2022/06/30 08:02:38;;;;;;;11.30;10.10;;;28.00;99.90;;;;;;5017674;28;20204;-67
2022/06/30 08:05:05;;;;;;;11.40;10.30;;;28.20;99.90;;;;;;5012043;28;20215;-66
2022/06/30 08:07:32;;;;;;;11.02;9.98;;;28.40;99.90;;;;;;5010979;28;20644;-74
2022/06/30 08:09:59;;;;;;;10.18;9.00;;;28.50;99.90;;;;;;5015342;28;20211;-66
2022/06/30 08:12:27;;;;;;;11.00;9.57;;;28.70;99.90;;;;;;5017509;28;20226;-67
2022/06/30 08:14:54;;;;;;;15.88;10.02;;;28.90;99.90;;;;;;5009468;28;20591;-65
2022/06/30 08:17:21;;;;;;;11.65;10.35;;;29.00;99.90;;;;;;5009621;28;20278;-67
2022/06/30 08:19:47;;;;;;;11.85;10.57;;;29.10;99.90;;;;;;5014525;28;20198;-67
2022/06/30 08:22:14;;;;;;;12.10;10.20;;;29.00;99.90;;;;;;5010353;28;20215;-67
2022/06/30 08:24:41;;;;;;;11.55;10.30;;;29.00;99.90;;;;;;5021656;28;20206;-67
2022/06/30 08:27:08;;;;;;;11.68;10.48;;;29.00;99.90;;;;;;5015298;28;20679;-67
2022/06/30 08:29:36;;;;;;;17.92;12.95;;;28.90;99.90;;;;;;5011205;28;20230;-66
2022/06/30 08:32:05;;;;;;;12.93;10.32;;;29.00;99.90;;;;;;5011686;28;20249;-68
2022/06/30 08:34:33;;;;;;;11.05;10.02;;;29.10;99.90;;;;;;5014945;28;20524;-65
2022/06/30 08:37:00;;;;;;;12.48;10.23;;;29.10;99.90;;;;;;5016414;28;20222;-68
2022/06/30 08:42:13;;;;;;;11.38;10.23;;;29.30;99.90;;;;;;5020659;28;20590;-64
2022/06/30 08:44:44;;;;;;;10.88;9.80;;;29.40;99.90;;;;;;5018853;28;20217;-67
2022/06/30 08:47:12;;;;;;;15.23;10.15;;;29.30;99.90;;;;;;5020319;28;20198;-66
2022/06/30 08:49:38;;;;;;;12.32;10.30;;;29.40;99.90;;;;;;5012399;28;20730;-65
2022/06/30 08:52:06;;;;;;;13.27;10.45;;;29.50;99.90;;;;;;5019329;28;20207;-68
2022/06/30 08:54:38;;;;;;;11.68;10.52;;;29.60;99.90;;;;;;5013426;28;20207;-67
2022/06/30 08:57:06;;;;;;;12.05;10.80;;;29.70;99.90;;;;;;5016590;28;20202;-68
2022/06/30 08:59:33;;;;;;;12.98;10.50;;;29.60;99.90;;;;;;5014617;28;20246;-68
2022/06/30 09:02:01;;;;;;;13.73;10.25;;;29.60;99.90;;;;;;5007146;28;20259;-67
2022/06/30 09:04:29;;;;;;;12.52;10.05;;;29.60;99.90;;;;;;5018454;28;20207;-66
2022/06/30 09:06:57;;;;;;;12.35;10.60;;;29.60;99.90;;;;;;5013809;28;20426;-70
2022/06/30 09:09:23;;;;;;;11.38;10.35;;;29.90;99.90;;;;;;5014143;28;20302;-72
2022/06/30 09:11:53;;;;;;;14.85;11.25;;;29.80;99.90;;;;;;5014001;28;20235;-67
2022/06/30 09:14:37;;;;;;;12.50;11.25;;;30.00;99.90;;;;;;5016980;28;20203;-67
2022/06/30 09:17:06;;;;;;;14.82;11.23;;;30.10;99.90;;;;;;5016024;28;20211;-69
2022/06/30 09:19:35;;;;;;;11.60;10.52;;;30.30;99.90;;;;;;5013828;28;20227;-67
2022/06/30 09:22:06;;;;;;;11.77;10.65;;;30.50;99.90;;;;;;5015507;28;20302;-67
2022/06/30 09:24:33;;;;;;;13.23;11.25;;;30.60;99.90;;;;;;5018306;28;20755;-66
2022/06/30 09:27:19;;;;;;;11.20;10.13;;;30.70;99.90;;;;;;5016438;28;20200;-68
2022/06/30 09:29:47;;;;;;;13.82;11.38;;;30.80;99.90;;;;;;5016619;28;20238;-69
2022/06/30 09:32:16;;;;;;;12.93;11.25;;;31.00;99.90;;;;;;5018138;28;20217;-69
2022/06/30 09:34:43;;;;;;;12.35;10.90;;;31.10;99.90;;;;;;5026314;28;20209;-69
2022/06/30 09:37:16;;;;;;;13.13;11.40;;;31.30;99.90;;;;;;5017171;28;20211;-69
2022/06/30 09:39:45;;;;;;;13.40;11.40;;;31.40;99.90;;;;;;5022789;28;20215;-70
2022/06/30 09:42:12;;;;;;;12.25;10.93;;;31.60;99.90;;;;;;5014523;28;20211;-70
2022/06/30 09:44:39;;;;;;;11.82;10.65;;;31.70;99.90;;;;;;5017014;28;20217;-69
2022/06/30 09:47:08;;;;;;;13.40;10.70;;;31.80;99.90;;;;;;5014697;28;20207;-69
2022/06/30 09:49:37;;;;;;;10.65;9.65;;;31.90;99.90;;;;;;5013895;28;20285;-70
2022/06/30 09:52:14;;;;;;;11.57;10.48;;;32.10;99.90;;;;;;5022960;28;20250;-70
2022/06/30 09:54:52;;;;;;;11.15;9.80;;;32.20;99.90;;;;;;5014653;28;20207;-69
2022/06/30 09:57:19;;;;;;;14.70;10.98;;;32.30;99.90;;;;;;5011928;28;20199;-69
2022/06/30 09:59:46;;;;;;;10.70;9.70;;;32.40;99.90;;;;;;5013430;28;20736;-70
2022/06/30 10:02:13;;;;;;;13.30;10.55;;;32.50;99.90;;;;;;5024198;28;20215;-69
2022/06/30 10:04:59;;;;;;;14.05;10.20;;;32.60;99.90;;;;;;5016742;28;20207;-69
2022/06/30 10:07:26;;;;;;;10.05;9.05;;;32.80;99.90;;;;;;5013726;28;20203;-69
2022/06/30 10:09:53;;;;;;;11.88;10.63;;;33.00;99.90;;;;;;5019456;28;20203;-68
2022/06/30 10:12:22;;;;;;;11.65;9.45;;;33.20;99.90;;;;;;5012824;28;20211;-70
2022/06/30 10:14:51;;;;;;;10.32;9.30;;;33.30;99.00;;;;;;5016576;28;20563;-69
2022/06/30 10:17:20;;;;;;;11.30;9.45;;;33.20;99.00;;;;;;5012509;28;20266;-70
2022/06/30 10:19:47;;;;;;;9.75;8.90;;;33.10;98.60;;;;;;5018574;28;20695;-69
2022/06/30 10:22:16;;;;;;;11.20;10.07;;;33.10;98.70;;;;;;5018188;28;20238;-69
2022/06/30 10:24:45;;;;;;;11.10;10.00;;;33.10;98.40;;;;;;5012651;28;20204;-69
2022/06/30 10:27:14;;;;;;;9.90;8.95;;;33.20;97.90;;;;;;5015236;28;20233;-72
2022/06/30 10:29:46;;;;;;;12.50;9.60;;;33.30;97.90;;;;;;5021842;28;20234;-68
2022/06/30 10:32:21;;;;;;;10.02;8.98;;;33.30;97.50;;;;;;5011919;28;20211;-70
2022/06/30 10:34:55;;;;;;;10.82;9.50;;;33.30;97.50;;;;;;5014480;28;20199;-68
2022/06/30 10:37:28;;;;;;;10.23;9.13;;;33.40;96.70;;;;;;5011255;28;20294;-68
2022/06/30 10:39:59;;;;;;;10.55;8.52;;;33.50;95.50;;;;;;5007766;28;20876;-67
2022/06/30 10:42:47;;;;;;;10.77;9.02;;;33.50;94.90;;;;;;5015223;28;20334;-68
2022/06/30 10:45:37;;;;;;;10.55;9.65;;;33.70;94.60;;;;;;5009327;28;20209;-68
2022/06/30 10:48:05;;;;;;;10.07;9.07;;;33.90;94.20;;;;;;5009246;28;20636;-67
2022/06/30 10:50:36;;;;;;;10.15;9.25;;;33.90;93.30;;;;;;5019718;28;20234;-67
2022/06/30 10:53:05;;;;;;;10.55;9.00;;;34.00;93.40;;;;;;5023310;28;20645;-68
2022/06/30 10:55:44;;;;;;;9.95;8.95;;;34.20;92.50;;;;;;5013508;28;20202;-69
2022/06/30 10:58:12;;;;;;;10.80;9.70;;;34.30;92.50;;;;;;5018500;28;20206;-74
2022/06/30 11:00:59;;;;;;;9.50;8.60;;;34.40;91.90;;;;;;5016773;28;20207;-68
2022/06/30 11:04:03;;;;;;;10.70;7.93;;;34.50;91.80;;;;;;5014616;28;20271;-67
2022/06/30 11:07:06;;;;;;;9.57;8.75;;;34.80;91.50;;;;;;5010069;28;20199;-69
2022/06/30 11:10:21;;;;;;;10.77;8.73;;;35.00;90.40;;;;;;5008372;28;20199;-70
2022/06/30 11:12:57;;;;;;;9.55;8.75;;;35.10;88.80;;;;;;5008350;28;20265;-69
2022/06/30 11:16:05;;;;;;;11.32;8.63;;;35.10;87.90;;;;;;5010107;28;20683;-69
2022/06/30 11:18:35;;;;;;;12.95;9.02;;;35.10;87.60;;;;;;5017247;28;20239;-68
2022/06/30 11:21:03;;;;;;;9.32;8.35;;;35.10;87.00;;;;;;5009642;28;20239;-69
2022/06/30 11:23:38;;;;;;;11.85;8.90;;;35.10;87.00;;;;;;5015733;28;20214;-69
2022/06/30 11:28:54;;;;;;;11.98;9.10;;;35.20;85.10;;;;;;5012458;28;20225;-70
2022/06/30 11:31:29;;;;;;;11.15;9.10;;;35.30;84.30;;;;;;5015813;28;20222;-68
2022/06/30 11:34:00;;;;;;;11.25;8.40;;;35.30;84.10;;;;;;5017572;28;20206;-70
2022/06/30 11:36:27;;;;;;;11.73;8.40;;;35.40;82.70;;;;;;5017223;28;20214;-73
2022/06/30 11:38:55;;;;;;;12.45;8.18;;;35.40;82.30;;;;;;5009857;28;20258;-74
2022/06/30 11:44:09;;;;;;;9.60;8.20;;;35.20;81.70;;;;;;5012423;28;20197;-70
2022/06/30 11:46:49;;;;;;;9.05;7.70;;;35.20;81.40;;;;;;5014705;28;20791;-70
2022/06/30 11:49:16;;;;;;;9.02;8.10;;;35.20;80.70;;;;;;5016256;28;20657;-68
2022/06/30 11:51:44;;;;;;;14.25;8.02;;;35.30;80.00;;;;;;5010025;28;20222;-68
2022/06/30 11:54:12;;;;;;;9.32;8.20;;;35.40;79.80;;;;;;5021689;28;20583;-67
2022/06/30 11:56:47;;;;;;;9.93;7.88;;;35.50;79.60;;;;;;5009564;28;20207;-69
2022/06/30 11:59:15;;;;;;;9.38;8.48;;;35.50;78.90;;;;;;5009969;28;20218;-69
2022/06/30 12:01:42;;;;;;;14.00;8.10;;;35.50;78.00;;;;;;5012212;28;20584;-70
2022/06/30 12:04:13;;;;;;;9.18;8.02;;;35.50;78.00;;;;;;5012447;28;20211;-68
2022/06/30 12:06:40;;;;;;;9.13;8.32;;;35.60;77.70;;;;;;5014744;28;20250;-68
2022/06/30 12:09:07;;;;;;;9.43;8.55;;;35.60;77.00;;;;;;5013942;28;20199;-68
2022/06/30 12:11:36;;;;;;;10.90;8.45;;;35.80;76.80;;;;;;5016750;28;20651;-69
2022/06/30 12:14:03;;;;;;;8.40;7.05;;;35.90;76.10;;;;;;5017490;28;20622;-69
2022/06/30 12:16:31;;;;;;;10.70;8.02;;;35.90;75.80;;;;;;5013655;28;20217;-68
2022/06/30 12:18:58;;;;;;;9.02;7.75;;;36.00;75.10;;;;;;5020072;28;20243;-69
2022/06/30 12:21:25;;;;;;;14.20;8.05;;;35.80;74.80;;;;;;5013020;28;20851;-67
2022/06/30 12:23:52;;;;;;;9.52;7.55;;;35.80;75.30;;;;;;5013479;28;20233;-70
2022/06/30 12:26:19;;;;;;;7.95;7.15;;;35.80;74.30;;;;;;5021667;28;20905;-68
2022/06/30 12:28:47;;;;;;;8.82;8.02;;;35.80;73.20;;;;;;5021877;28;20234;-69
2022/06/30 12:31:24;;;;;;;9.90;8.18;;;35.70;72.70;;;;;;5023270;28;20604;-69
2022/06/30 12:33:53;;;;;;;8.48;7.88;;;35.50;73.50;;;;;;5019093;28;20230;-68
2022/06/30 12:36:20;;;;;;;8.13;7.40;;;35.40;74.60;;;;;;5020997;28;20651;-68
2022/06/30 12:38:47;;;;;;;9.15;8.27;;;35.30;74.90;;;;;;5015428;28;20549;-71
2022/06/30 12:41:14;;;;;;;8.77;7.85;;;35.40;75.20;;;;;;5016660;28;20210;-67
2022/06/30 12:43:46;;;;;;;9.98;7.95;;;35.40;75.30;;;;;;5014446;28;20290;-70
2022/06/30 12:46:13;;;;;;;11.13;7.63;;;35.60;74.80;;;;;;5022507;28;20303;-68
2022/06/30 12:48:46;;;;;;;8.40;7.22;;;35.60;72.80;;;;;;5019967;28;20218;-73
2022/06/30 12:51:17;;;;;;;9.98;7.25;;;35.70;71.90;;;;;;5018202;28;20206;-67
2022/06/30 12:53:46;;;;;;;8.13;6.97;;;35.60;72.20;;;;;;5028126;28;20222;-67
2022/06/30 12:56:17;;;;;;;8.40;7.47;;;35.70;71.90;;;;;;5022678;28;20613;-67
2022/06/30 12:58:53;;;;;;;9.57;7.68;;;35.70;71.30;;;;;;5023802;28;20225;-68